Terminal Aerodrome Forecast
Issued by NWS Los Angeles, CA

Home | Current Version | Previous Version | Text Only | Print | Product List | Glossary On
Versions: 1 2 3 4 5 6 7 8 9 10 11 12 13 14 15 16 17 18 19 20
000
FTUS46 KLOX 291700
TAFSMX
TAF
KSMX 291720Z 2918/3018 VRB03KT P6SM SKC
     FM292000 30012KT P6SM SKC
     FM300200 31007KT P6SM SKC
     FM300500 VRB03KT 4SM BR OVC005
     FM301600 VRB03KT 6SM BR BKN007=

USA.gov is the U.S. government's official web portal to all federal, state and local government web resources and services.